createdAt,value
2022-08-19T00:01:29.162Z,17.70
2022-08-19T00:04:03.336Z,17.70
2022-08-19T00:06:31.252Z,17.60
2022-08-19T00:08:58.168Z,17.60
2022-08-19T00:11:26.770Z,17.60
2022-08-19T00:13:56.856Z,17.60
2022-08-19T00:16:26.294Z,17.60
2022-08-19T00:18:55.675Z,17.60
2022-08-19T00:21:22.914Z,17.60
2022-08-19T00:23:49.324Z,17.50
2022-08-19T00:26:16.578Z,17.50
2022-08-19T00:28:42.698Z,17.50
2022-08-19T00:31:09.804Z,17.50
2022-08-19T00:33:37.043Z,17.50
2022-08-19T00:36:06.484Z,17.40
2022-08-19T00:38:37.713Z,17.40
2022-08-19T00:41:06.344Z,17.40
2022-08-19T00:43:32.761Z,17.40
2022-08-19T00:45:59.147Z,17.40
2022-08-19T00:48:25.769Z,17.40
2022-08-19T00:50:54.565Z,17.30
2022-08-19T00:53:24.512Z,17.30
2022-08-19T00:55:53.765Z,17.30
2022-08-19T00:58:22.488Z,17.30
2022-08-19T01:00:48.965Z,17.20
2022-08-19T01:03:19.205Z,17.20
2022-08-19T01:05:47.700Z,17.20
2022-08-19T01:08:15.736Z,17.20
2022-08-19T01:10:46.450Z,17.10
2022-08-19T01:13:15.632Z,17.10
2022-08-19T01:15:49.270Z,17.10
2022-08-19T01:18:18.281Z,17.00
2022-08-19T01:20:44.881Z,17.00
2022-08-19T01:23:12.854Z,17.00
2022-08-19T01:25:48.394Z,16.90
2022-08-19T01:28:34.224Z,16.90
2022-08-19T01:31:08.264Z,16.90
2022-08-19T01:33:34.849Z,16.90
2022-08-19T01:36:15.078Z,16.90
2022-08-19T01:38:44.543Z,16.80
2022-08-19T01:41:12.661Z,16.80
2022-08-19T01:43:38.905Z,16.70
2022-08-19T01:46:25.223Z,16.70
2022-08-19T01:48:51.400Z,16.70
2022-08-19T01:51:18.107Z,16.70
2022-08-19T01:53:48.722Z,16.60
2022-08-19T01:56:14.893Z,16.60
2022-08-19T01:58:51.002Z,16.50
2022-08-19T02:01:18.174Z,16.50
2022-08-19T02:03:46.218Z,16.50
2022-08-19T02:06:12.415Z,16.50
2022-08-19T02:08:39.818Z,16.50
2022-08-19T02:11:09.813Z,16.50
2022-08-19T02:13:35.907Z,16.50
2022-08-19T02:16:04.371Z,16.50
2022-08-19T02:18:30.748Z,16.50
2022-08-19T02:20:56.821Z,16.40
2022-08-19T02:23:22.945Z,16.30
2022-08-19T02:25:49.421Z,16.30
2022-08-19T02:28:18.737Z,16.30
2022-08-19T02:30:47.458Z,16.30
2022-08-19T02:33:13.954Z,16.30
2022-08-19T02:35:47.409Z,16.20
2022-08-19T02:38:26.597Z,16.20
2022-08-19T02:41:02.673Z,16.20
2022-08-19T02:43:33.652Z,16.20
2022-08-19T02:46:00.626Z,16.20
2022-08-19T02:48:26.769Z,16.20
2022-08-19T02:50:55.692Z,16.20
2022-08-19T02:53:27.724Z,16.20
2022-08-19T02:55:54.700Z,16.20
2022-08-19T02:58:22.674Z,16.10
2022-08-19T03:00:53.105Z,16.00
2022-08-19T03:03:20.168Z,16.00
2022-08-19T03:05:55.947Z,16.00
2022-08-19T03:08:24.659Z,15.90
2022-08-19T03:10:53.326Z,15.90
2022-08-19T03:13:19.889Z,15.90
2022-08-19T03:15:47.670Z,16.00
2022-08-19T03:18:15.434Z,16.00
2022-08-19T03:20:48.098Z,16.00
2022-08-19T03:23:15.960Z,15.90
2022-08-19T03:25:58.418Z,15.90
2022-08-19T03:28:36.574Z,15.90
2022-08-19T03:31:41.627Z,15.90
2022-08-19T03:33:57.374Z,15.90
2022-08-19T03:36:26.225Z,16.00
2022-08-19T03:38:59.648Z,16.00
2022-08-19T03:41:34.337Z,16.00
2022-08-19T03:44:17.018Z,16.00
2022-08-19T03:46:46.826Z,16.00
2022-08-19T03:49:14.421Z,16.00
2022-08-19T03:51:41.960Z,16.00
2022-08-19T03:54:11.453Z,16.00
2022-08-19T03:56:39.274Z,16.00
2022-08-19T03:59:11.010Z,16.00
2022-08-19T04:01:41.411Z,15.90
2022-08-19T04:04:07.743Z,15.90
2022-08-19T04:06:39.625Z,15.80
2022-08-19T04:09:08.872Z,15.80
2022-08-19T04:11:48.358Z,15.80
2022-08-19T04:14:21.658Z,15.80
2022-08-19T04:16:48.868Z,15.80
2022-08-19T04:19:17.041Z,15.80
2022-08-19T04:21:48.989Z,15.80
2022-08-19T04:24:16.444Z,15.70
2022-08-19T04:26:42.888Z,15.70
2022-08-19T04:29:13.014Z,15.60
2022-08-19T04:31:41.368Z,15.60
2022-08-19T04:34:11.175Z,15.60
2022-08-19T04:36:40.886Z,15.60
2022-08-19T04:39:10.552Z,15.60
2022-08-19T04:41:55.241Z,15.60
2022-08-19T04:44:22.202Z,15.60
2022-08-19T04:46:51.480Z,15.60
2022-08-19T04:49:23.467Z,15.60
2022-08-19T04:51:52.931Z,15.60
2022-08-19T04:54:37.043Z,15.60
2022-08-19T04:57:06.934Z,15.60
2022-08-19T04:59:33.957Z,15.60
2022-08-19T05:02:00.276Z,15.60
2022-08-19T05:04:26.627Z,15.50
2022-08-19T05:07:00.858Z,15.50
2022-08-19T05:09:28.584Z,15.50
2022-08-19T05:12:14.821Z,15.60
2022-08-19T05:14:40.893Z,15.70
2022-08-19T05:17:26.501Z,15.70
2022-08-19T05:20:12.130Z,15.70
2022-08-19T05:22:40.165Z,15.80
2022-08-19T05:25:13.493Z,15.90
2022-08-19T05:27:41.902Z,16.00
2022-08-19T05:30:09.078Z,16.10
2022-08-19T05:32:35.319Z,16.20
2022-08-19T05:35:01.577Z,16.20
2022-08-19T05:37:30.046Z,16.30
2022-08-19T05:39:56.258Z,16.40
2022-08-19T05:42:23.556Z,16.50
2022-08-19T05:44:50.627Z,16.60
2022-08-19T05:47:20.336Z,16.70
2022-08-19T05:49:46.748Z,16.90
2022-08-19T05:52:15.799Z,17.10
2022-08-19T05:54:48.193Z,17.30
2022-08-19T05:57:18.788Z,17.50
2022-08-19T05:59:49.100Z,17.70
2022-08-19T06:02:15.508Z,18.10
2022-08-19T06:04:44.623Z,18.40
2022-08-19T06:07:12.800Z,18.70
2022-08-19T06:09:40.418Z,19.10
2022-08-19T06:12:07.424Z,19.40
2022-08-19T06:14:37.629Z,19.80
2022-08-19T06:17:08.649Z,20.10
2022-08-19T06:19:34.766Z,20.50
2022-08-19T06:22:08.429Z,20.70
2022-08-19T06:24:35.509Z,21.00
2022-08-19T06:27:02.060Z,21.20
2022-08-19T06:29:30.120Z,21.40
2022-08-19T06:31:59.632Z,21.70
2022-08-19T06:34:28.461Z,21.60
2022-08-19T06:36:55.073Z,21.40
2022-08-19T06:39:26.557Z,21.30
2022-08-19T06:41:58.670Z,21.10
2022-08-19T06:44:27.410Z,21.00
2022-08-19T06:46:55.151Z,20.90
2022-08-19T06:49:22.214Z,20.80
2022-08-19T06:51:52.127Z,20.80
2022-08-19T06:54:20.244Z,20.80
2022-08-19T06:56:46.953Z,20.80
2022-08-19T06:59:16.773Z,20.80
2022-08-19T07:01:54.128Z,20.80
2022-08-19T07:04:23.532Z,20.90
2022-08-19T07:06:57.209Z,20.90
2022-08-19T07:09:24.989Z,21.00
2022-08-19T07:11:53.005Z,21.10
2022-08-19T07:14:24.185Z,21.10
2022-08-19T07:16:53.921Z,21.20
2022-08-19T07:19:20.382Z,21.30
2022-08-19T07:21:54.209Z,21.30
2022-08-19T07:24:24.372Z,21.30
2022-08-19T07:26:52.546Z,21.30
2022-08-19T07:29:23.561Z,21.30
2022-08-19T07:31:53.006Z,21.30
2022-08-19T07:34:20.445Z,21.30
2022-08-19T07:36:46.588Z,21.40
2022-08-19T07:39:17.150Z,21.40
2022-08-19T07:41:44.329Z,21.40
2022-08-19T07:44:13.489Z,21.50
2022-08-19T07:46:42.335Z,21.50
2022-08-19T07:49:13.958Z,21.50
2022-08-19T07:51:40.191Z,21.50
2022-08-19T07:54:06.406Z,21.50
2022-08-19T07:56:32.560Z,21.40
2022-08-19T07:58:58.774Z,21.40
2022-08-19T08:01:26.953Z,21.40
2022-08-19T08:04:12.584Z,21.40
2022-08-19T08:06:57.634Z,21.40
2022-08-19T08:09:27.241Z,21.60
2022-08-19T08:12:02.011Z,21.80
2022-08-19T08:14:35.666Z,22.00
2022-08-19T08:17:03.608Z,22.80
2022-08-19T08:19:38.128Z,23.50
2022-08-19T08:22:06.638Z,24.00
2022-08-19T08:24:33.997Z,24.00
2022-08-19T08:27:01.257Z,23.90
2022-08-19T08:29:34.779Z,25.10
2022-08-19T08:32:02.835Z,26.00
2022-08-19T08:34:29.244Z,26.90
2022-08-19T08:36:55.553Z,27.00
2022-08-19T08:39:24.154Z,27.10
2022-08-19T08:42:10.187Z,27.50
2022-08-19T08:45:01.594Z,27.60
2022-08-19T08:47:35.829Z,27.90
2022-08-19T08:50:07.238Z,28.80
2022-08-19T08:52:38.003Z,29.70
2022-08-19T08:55:20.304Z,30.80
2022-08-19T08:57:49.380Z,31.70
2022-08-19T09:00:20.284Z,32.60
2022-08-19T09:02:50.522Z,33.40
2022-08-19T09:05:22.351Z,34.20
2022-08-19T09:08:05.428Z,34.70
2022-08-19T09:10:45.060Z,34.50
2022-08-19T09:13:49.754Z,33.70
2022-08-19T09:16:21.180Z,32.50
2022-08-19T09:18:54.027Z,31.20
2022-08-19T09:21:30.310Z,30.30
2022-08-19T09:24:03.410Z,30.00
2022-08-19T09:26:47.254Z,29.60
2022-08-19T09:29:15.644Z,29.30
2022-08-19T09:31:44.670Z,29.60
2022-08-19T09:34:21.566Z,29.30
2022-08-19T09:36:55.232Z,29.70
2022-08-19T09:39:22.331Z,31.50
2022-08-19T09:41:50.125Z,31.50
2022-08-19T09:44:16.681Z,31.00
2022-08-19T09:46:44.749Z,30.70
2022-08-19T09:49:11.116Z,31.00
2022-08-19T09:51:39.579Z,30.70
2022-08-19T09:54:06.347Z,30.20
2022-08-19T09:56:34.099Z,30.50
2022-08-19T09:59:02.166Z,31.30
2022-08-19T10:01:30.435Z,30.90
2022-08-19T10:04:00.182Z,30.50
2022-08-19T10:06:42.009Z,30.10
2022-08-19T10:09:13.534Z,29.90
2022-08-19T10:11:49.888Z,29.90
2022-08-19T10:14:22.541Z,30.80
2022-08-19T10:16:49.775Z,31.40
2022-08-19T10:19:15.942Z,31.40
2022-08-19T10:21:52.415Z,31.20
2022-08-19T10:24:21.294Z,31.10
2022-08-19T10:26:49.231Z,31.70
2022-08-19T10:29:32.448Z,33.00
2022-08-19T10:32:09.452Z,33.50
2022-08-19T10:34:48.688Z,32.90
2022-08-19T10:37:23.706Z,33.30
2022-08-19T10:39:55.146Z,34.60
2022-08-19T10:42:22.657Z,35.90
2022-08-19T10:44:49.017Z,36.20
2022-08-19T10:47:25.545Z,35.80
2022-08-19T10:50:12.536Z,36.60
2022-08-19T10:52:49.294Z,37.20
2022-08-19T10:55:42.067Z,36.30
2022-08-19T10:58:17.193Z,35.40
2022-08-19T11:00:51.076Z,35.20
2022-08-19T11:03:17.324Z,35.30
2022-08-19T11:05:45.621Z,36.30
2022-08-19T11:08:22.270Z,37.40
2022-08-19T11:10:57.160Z,38.20
2022-08-19T11:13:23.848Z,37.70
2022-08-19T11:15:58.155Z,38.30
2022-08-19T11:18:24.603Z,39.30
2022-08-19T11:20:50.818Z,39.60
2022-08-19T11:23:16.945Z,39.20
2022-08-19T11:25:43.762Z,38.70
2022-08-19T11:28:10.212Z,38.20
2022-08-19T11:30:38.417Z,37.00
2022-08-19T11:33:04.601Z,36.90
2022-08-19T11:35:31.055Z,37.20
2022-08-19T11:38:01.699Z,36.70
2022-08-19T11:40:27.998Z,37.10
2022-08-19T11:42:57.786Z,37.00
2022-08-19T11:45:34.221Z,36.20
2022-08-19T11:48:01.087Z,35.40
2022-08-19T11:50:27.476Z,34.50
2022-08-19T11:52:58.623Z,33.80
2022-08-19T11:55:24.879Z,33.00
2022-08-19T11:57:51.198Z,32.30
2022-08-19T12:00:17.737Z,31.60
2022-08-19T12:02:44.075Z,31.10
2022-08-19T12:05:14.554Z,30.50
2022-08-19T12:07:42.020Z,30.00
2022-08-19T12:10:11.711Z,29.50
2022-08-19T12:12:58.781Z,29.00
2022-08-19T12:15:27.814Z,28.70
2022-08-19T12:17:56.855Z,28.30
2022-08-19T12:20:23.969Z,27.50
2022-08-19T12:22:51.576Z,27.00
2022-08-19T12:25:20.093Z,26.30
2022-08-19T12:27:57.322Z,25.60
2022-08-19T12:30:25.489Z,25.10
2022-08-19T12:32:52.129Z,24.60
2022-08-19T12:35:22.765Z,24.40
2022-08-19T12:37:53.589Z,24.20
2022-08-19T12:40:24.175Z,24.20
2022-08-19T12:42:53.550Z,24.50
2022-08-19T12:45:20.049Z,25.20
2022-08-19T12:47:49.593Z,26.00
2022-08-19T12:50:16.424Z,26.40
2022-08-19T12:52:42.641Z,26.40
2022-08-19T12:55:11.456Z,26.40
2022-08-19T12:57:38.369Z,26.40
2022-08-19T13:00:13.596Z,26.30
2022-08-19T13:02:43.186Z,26.10
2022-08-19T13:05:11.973Z,26.00
2022-08-19T13:07:41.436Z,26.00
2022-08-19T13:10:09.669Z,25.90
2022-08-19T13:12:35.816Z,25.90
2022-08-19T13:15:02.293Z,25.90
2022-08-19T13:17:29.240Z,25.90
2022-08-19T13:19:55.448Z,25.80
2022-08-19T13:22:21.999Z,25.80
2022-08-19T13:24:48.989Z,25.80
2022-08-19T13:27:15.644Z,25.90
2022-08-19T13:30:01.391Z,26.00
2022-08-19T13:32:47.525Z,26.00
2022-08-19T13:35:17.047Z,26.00
2022-08-19T13:37:45.861Z,26.00
2022-08-19T13:40:18.614Z,26.10
2022-08-19T13:42:50.764Z,26.20
2022-08-19T13:45:20.351Z,26.20
2022-08-19T13:47:50.526Z,26.40
2022-08-19T13:50:20.404Z,26.30
2022-08-19T13:52:47.797Z,26.20
2022-08-19T13:55:15.153Z,26.20
2022-08-19T13:57:53.215Z,26.10
2022-08-19T14:00:19.929Z,26.00
2022-08-19T14:02:47.680Z,26.00
2022-08-19T14:05:16.004Z,26.20
2022-08-19T14:07:42.252Z,26.40
2022-08-19T14:10:11.102Z,26.70
2022-08-19T14:12:37.925Z,27.00
2022-08-19T14:15:06.345Z,27.10
2022-08-19T14:17:35.890Z,27.20
2022-08-19T14:20:10.917Z,27.30
2022-08-19T14:22:40.360Z,27.40
2022-08-19T14:25:10.847Z,27.50
2022-08-19T14:27:38.431Z,27.60
2022-08-19T14:30:07.522Z,27.50
2022-08-19T14:32:34.514Z,27.40
2022-08-19T14:35:02.871Z,27.30
2022-08-19T14:37:29.399Z,27.10
2022-08-19T14:39:55.982Z,26.90
2022-08-19T14:42:22.189Z,26.60
2022-08-19T14:44:50.357Z,26.40
2022-08-19T14:47:16.740Z,26.20
2022-08-19T14:49:48.319Z,26.10
2022-08-19T14:52:14.794Z,26.00
2022-08-19T14:54:41.065Z,26.00
2022-08-19T14:57:09.103Z,26.00
2022-08-19T14:59:35.961Z,26.00
2022-08-19T15:02:34.094Z,26.10
2022-08-19T15:04:58.393Z,26.20
2022-08-19T15:07:28.880Z,26.40
2022-08-19T15:09:57.649Z,26.60
2022-08-19T15:12:24.326Z,26.60
2022-08-19T15:14:50.888Z,26.60
2022-08-19T15:17:19.304Z,26.70
2022-08-19T15:19:46.056Z,26.80
2022-08-19T15:22:12.601Z,26.90
2022-08-19T15:24:48.221Z,27.10
2022-08-19T15:27:14.671Z,27.20
2022-08-19T15:29:41.057Z,27.20
2022-08-19T15:32:09.303Z,27.20
2022-08-19T15:34:35.684Z,27.10
2022-08-19T15:37:03.955Z,26.90
2022-08-19T15:39:30.688Z,26.90
2022-08-19T15:42:00.150Z,26.70
2022-08-19T15:44:26.918Z,26.50
2022-08-19T15:46:53.047Z,26.20
2022-08-19T15:49:19.672Z,26.00
2022-08-19T15:51:48.936Z,25.80
2022-08-19T15:54:20.769Z,25.60
2022-08-19T15:57:06.903Z,25.50
2022-08-19T15:59:52.899Z,25.50
2022-08-19T16:02:39.907Z,25.40
2022-08-19T16:05:27.747Z,25.30
2022-08-19T16:07:54.663Z,25.30
2022-08-19T16:10:27.449Z,25.20
2022-08-19T16:12:55.354Z,25.20
2022-08-19T16:15:21.690Z,25.10
2022-08-19T16:17:55.423Z,25.00
2022-08-19T16:20:28.581Z,25.00
2022-08-19T16:22:58.481Z,25.00
2022-08-19T16:25:27.903Z,25.00
2022-08-19T16:28:07.038Z,25.10
2022-08-19T16:30:38.310Z,25.20
2022-08-19T16:33:04.973Z,25.40
2022-08-19T16:35:31.461Z,25.70
2022-08-19T16:37:58.211Z,26.00
2022-08-19T16:40:27.674Z,26.00
2022-08-19T16:42:56.695Z,26.00
2022-08-19T16:45:23.784Z,26.00
2022-08-19T16:47:50.057Z,25.90
2022-08-19T16:50:22.113Z,25.70
2022-08-19T16:53:00.401Z,25.50
2022-08-19T16:55:29.076Z,25.30
2022-08-19T16:57:55.903Z,25.20
2022-08-19T17:00:22.570Z,25.10
2022-08-19T17:02:48.851Z,24.90
2022-08-19T17:05:16.117Z,24.80
2022-08-19T17:07:43.256Z,24.70
2022-08-19T17:10:09.605Z,24.70
2022-08-19T17:12:38.417Z,24.60
2022-08-19T17:15:08.828Z,24.60
2022-08-19T17:17:36.766Z,24.50
2022-08-19T17:20:06.434Z,24.40
2022-08-19T17:22:40.780Z,24.40
2022-08-19T17:25:07.545Z,24.30
2022-08-19T17:27:37.903Z,24.20
2022-08-19T17:30:06.793Z,24.30
2022-08-19T17:32:34.848Z,24.30
2022-08-19T17:35:03.459Z,24.30
2022-08-19T17:37:29.855Z,24.30
2022-08-19T17:39:56.113Z,24.20
2022-08-19T17:42:24.260Z,24.20
2022-08-19T17:44:51.925Z,24.20
2022-08-19T17:47:20.640Z,24.10
2022-08-19T17:49:47.677Z,24.10
2022-08-19T17:52:14.568Z,24.00
2022-08-19T17:54:42.150Z,23.90
2022-08-19T17:57:09.433Z,23.80
2022-08-19T17:59:39.238Z,23.60
2022-08-19T18:02:08.307Z,23.60
2022-08-19T18:04:40.250Z,23.40
2022-08-19T18:07:07.449Z,23.30
2022-08-19T18:09:41.787Z,23.20
2022-08-19T18:12:13.367Z,23.10
2022-08-19T18:14:41.241Z,23.00
2022-08-19T18:17:10.791Z,22.90
2022-08-19T18:19:41.166Z,22.90
2022-08-19T18:22:36.361Z,22.90
2022-08-19T18:25:26.949Z,22.90
2022-08-19T18:28:00.763Z,22.90
2022-08-19T18:30:33.926Z,22.90
2022-08-19T18:33:07.270Z,22.90
2022-08-19T18:35:38.127Z,22.90
2022-08-19T18:38:25.222Z,22.80
2022-08-19T18:41:10.071Z,22.80
2022-08-19T18:43:57.157Z,22.80
2022-08-19T18:46:42.183Z,22.80
2022-08-19T18:49:12.750Z,22.80
2022-08-19T18:51:38.872Z,22.70
2022-08-19T18:54:06.150Z,22.70
2022-08-19T18:56:34.053Z,22.70
2022-08-19T18:59:01.287Z,22.60
2022-08-19T19:01:36.199Z,22.50
2022-08-19T19:04:10.737Z,22.50
2022-08-19T19:06:40.298Z,22.40
2022-08-19T19:09:13.174Z,22.40
2022-08-19T19:11:44.348Z,22.30
2022-08-19T19:14:23.030Z,22.30
2022-08-19T19:17:01.286Z,22.20
2022-08-19T19:19:28.431Z,22.00
2022-08-19T19:21:55.362Z,21.90
2022-08-19T19:24:29.378Z,21.80
2022-08-19T19:26:59.502Z,21.80
2022-08-19T19:29:26.337Z,21.80
2022-08-19T19:31:55.465Z,21.70
2022-08-19T19:34:29.328Z,21.70
2022-08-19T19:36:56.467Z,21.70
2022-08-19T19:39:33.994Z,21.60
2022-08-19T19:42:12.560Z,21.60
2022-08-19T19:44:48.078Z,21.50
2022-08-19T19:47:14.947Z,21.50
2022-08-19T19:49:57.919Z,21.40
2022-08-19T19:52:27.424Z,21.30
2022-08-19T19:54:55.988Z,21.30
2022-08-19T19:57:26.028Z,21.30
2022-08-19T19:59:53.425Z,21.20
2022-08-19T20:02:21.136Z,21.20
2022-08-19T20:04:48.174Z,21.30
2022-08-19T20:07:14.350Z,21.20
2022-08-19T20:09:58.761Z,21.20
2022-08-19T20:12:25.786Z,21.10
2022-08-19T20:14:51.829Z,21.20
2022-08-19T20:17:19.667Z,21.10
2022-08-19T20:19:46.168Z,21.10
2022-08-19T20:22:13.506Z,21.10
2022-08-19T20:24:41.672Z,21.00
2022-08-19T20:27:09.252Z,21.00
2022-08-19T20:29:39.622Z,21.00
2022-08-19T20:32:09.151Z,20.90
2022-08-19T20:34:36.457Z,20.90
2022-08-19T20:37:02.790Z,20.90
2022-08-19T20:39:29.117Z,20.90
2022-08-19T20:41:55.749Z,20.80
2022-08-19T20:44:24.634Z,20.80
2022-08-19T20:46:55.495Z,20.80
2022-08-19T20:49:22.740Z,20.80
2022-08-19T20:51:54.014Z,20.80
2022-08-19T20:54:20.105Z,20.80
2022-08-19T20:56:46.190Z,20.80
2022-08-19T20:59:12.302Z,20.80
2022-08-19T21:01:39.045Z,20.80
2022-08-19T21:04:05.462Z,20.80
2022-08-19T21:06:31.684Z,20.90
2022-08-19T21:08:58.631Z,20.90
2022-08-19T21:11:24.776Z,20.90
2022-08-19T21:13:51.253Z,20.90
2022-08-19T21:16:18.596Z,20.90
2022-08-19T21:18:44.690Z,20.80
2022-08-19T21:21:10.820Z,20.80
2022-08-19T21:23:37.076Z,20.80
2022-08-19T21:26:04.080Z,20.80
2022-08-19T21:28:36.363Z,20.70
2022-08-19T21:31:04.949Z,20.70
2022-08-19T21:33:31.889Z,20.80
2022-08-19T21:36:01.373Z,20.70
2022-08-19T21:38:28.673Z,20.80
2022-08-19T21:40:55.635Z,20.80
2022-08-19T21:43:23.482Z,20.80
2022-08-19T21:45:50.354Z,20.80
2022-08-19T21:48:17.067Z,20.80
2022-08-19T21:50:44.282Z,20.80
2022-08-19T21:53:18.087Z,20.80
2022-08-19T21:55:52.850Z,20.80
2022-08-19T21:58:28.125Z,20.80
2022-08-19T22:01:07.159Z,20.80
2022-08-19T22:03:35.458Z,20.70
2022-08-19T22:06:02.144Z,20.80
2022-08-19T22:08:31.161Z,20.80
2022-08-19T22:10:58.983Z,20.80
2022-08-19T22:13:26.129Z,20.80
2022-08-19T22:15:52.474Z,20.70
2022-08-19T22:18:19.621Z,20.70
2022-08-19T22:20:47.240Z,20.70
2022-08-19T22:23:14.294Z,20.70
2022-08-19T22:25:44.444Z,20.70
2022-08-19T22:28:14.389Z,20.70
2022-08-19T22:30:46.704Z,20.70
2022-08-19T22:33:17.171Z,20.70
2022-08-19T22:35:45.776Z,20.70
2022-08-19T22:38:12.441Z,20.70
2022-08-19T22:40:42.164Z,20.70
2022-08-19T22:43:15.027Z,20.70
2022-08-19T22:45:42.926Z,20.70
2022-08-19T22:48:12.077Z,20.70
2022-08-19T22:50:39.886Z,20.70
2022-08-19T22:53:07.783Z,20.60
2022-08-19T22:55:36.228Z,20.70
2022-08-19T22:58:03.552Z,20.60
2022-08-19T23:00:30.558Z,20.60
2022-08-19T23:02:57.860Z,20.60
2022-08-19T23:05:26.573Z,20.70
2022-08-19T23:07:53.467Z,20.60
2022-08-19T23:10:26.623Z,20.60
2022-08-19T23:12:56.530Z,20.60
2022-08-19T23:15:25.784Z,20.60
2022-08-19T23:17:53.836Z,20.60
2022-08-19T23:20:21.603Z,20.60
2022-08-19T23:22:51.840Z,20.70
2022-08-19T23:25:23.287Z,20.60
2022-08-19T23:28:08.715Z,20.70
2022-08-19T23:30:38.497Z,20.60
2022-08-19T23:33:13.669Z,20.60
2022-08-19T23:35:41.171Z,20.60
2022-08-19T23:38:09.096Z,20.60
2022-08-19T23:40:36.777Z,20.60
2022-08-19T23:43:08.164Z,20.50
2022-08-19T23:45:40.694Z,20.60
2022-08-19T23:48:17.882Z,20.60
2022-08-19T23:50:45.086Z,20.50
2022-08-19T23:53:13.364Z,20.60
2022-08-19T23:55:42.685Z,20.50
2022-08-19T23:58:09.128Z,20.50
